Terminal Aerodrome Forecast
Issued by NWS Tulsa, OK

Home | Current Version | Previous Version | Text Only | Print | Product List | Glossary On
Versions: 1 2 3 4 5 6 7 8 9 10 11 12 13 14 15 16 17 18 19 20
000
FTUS44 KTSA 020800 AAA
TAFFSM
TAF AMD
KFSM 020830Z 0209/0306 00000KT 4SM BR SCT250
      TEMPO 0209/0212 1SM BR
     FM021400 08005KT P6SM SCT250=

USA.gov is the U.S. government's official web portal to all federal, state and local government web resources and services.